MSC Magnifica — 3FLO4 — position and weather

sailwx.info

Track history (hours):
 
Tides and Currents Weather Stations Pressure Air Temp Water Temp Dewpoint Dewpoint Depression Visibility Wind Speed Wind Dir Waves Ship Positions

MSC Magnifica

Last reported at 2019-Nov-18 00:56 UTC. Time now 2019-Nov-20 09:59 UTC.
Position N 44°04' E 014°04'.

Length 294 m; draft 7.8 m.

Type: Passenger vessel. MMSI: 352594000.

Date/timePositionNaut miles runAvg speedWind from/ knotsBaromVisibWave heightAir tempDewpointWater temp
2019-Nov-18 00:56N 44°04' E 014°04'2920.6
2019-Nov-17 23:30N 44°28' E 013°42'1020.7
2019-Nov-17 23:00N 44°37' E 013°34'2020.5
2019-Nov-17 22:00N 44°54' E 013°19'3618.0
2019-Nov-17 20:00N 45°30' E 013°12'2510.0
2019-Nov-17 17:29N 45°39' E 013°46'0 0.0
2019-Nov-17 16:41N 45°39' E 013°46'0 0.0
2019-Nov-17 07:28N 45°39' E 013°46'29 9.6
2019-Nov-17 04:30N 45°23' E 013°12'1020.4
2019-Nov-17 04:00N 45°13' E 013°14'1121.1
2019-Nov-17 03:30N 45°03' E 013°19'4621.2
2019-Nov-17 01:21N 44°23' E 013°53'  
2019-Nov-13 20:03N 37°40' E 023°42'1610.1
2019-Nov-13 18:28N 37°56' E 023°38'0 0.0
2019-Nov-13 17:58N 37°56' E 023°38'0 0.0
2019-Nov-13 15:58N 37°56' E 023°38'0 0.0
2019-Nov-13 14:28N 37°56' E 023°38'0 0.0
2019-Nov-13 13:58N 37°56' E 023°38'0 0.0
2019-Nov-13 12:25N 37°56' E 023°38'0 0.0
2019-Nov-13 11:28N 37°56' E 023°38'0 0.0
2019-Nov-13 09:59N 37°56' E 023°38'0 0.0
2019-Nov-13 09:28N 37°56' E 023°38'0 0.0
2019-Nov-13 08:25N 37°56' E 023°38'25 3.0
2019-Nov-13 00:00N 37°32' E 023°46'1020.9
2019-Nov-12 23:30N 37°22' E 023°44'60912.9
2019-Nov-11 00:19N 44°16' E 013°54'1721.3
2019-Nov-10 23:30N 44°31' E 013°41'2121.1
2019-Nov-10 22:30N 44°48' E 013°24'3221.3
2019-Nov-10 21:00N 45°10' E 012°52'2811.3
2019-Nov-10 18:30N 45°26' E 012°19'0 0.0
2019-Nov-10 16:00N 45°26' E 012°19'0 0.0
2019-Nov-10 09:00N 45°26' E 012°19'23 7.8
2019-Nov-10 06:00N 45°14' E 012°46'3819.2
2019-Nov-10 04:00N 44°49' E 013°28'  
Track history (hours):
 
Tides and Currents Weather Stations Pressure Air Temp Water Temp Dewpoint Dewpoint Depression Visibility Wind Speed Wind Dir Waves Ship Positions

MSC Magnifica

Last reported at 2019-Nov-18 00:56 UTC. Time now 2019-Nov-20 09:59 UTC.
Position N 44°04' E 014°04'.

Length 294 m; draft 7.8 m.

Type: Passenger vessel. MMSI: 352594000.

Date/timePositionNaut miles runAvg speedWind from/ knotsBaromVisibWave heightAir tempDewpointWater temp
2019-Nov-18 00:56N 44°04' E 014°04'2920.6
2019-Nov-17 23:30N 44°28' E 013°42'1020.7
2019-Nov-17 23:00N 44°37' E 013°34'2020.5
2019-Nov-17 22:00N 44°54' E 013°19'3618.0
2019-Nov-17 20:00N 45°30' E 013°12'2510.0
2019-Nov-17 17:29N 45°39' E 013°46'0 0.0
2019-Nov-17 16:41N 45°39' E 013°46'0 0.0
2019-Nov-17 07:28N 45°39' E 013°46'29 9.6
2019-Nov-17 04:30N 45°23' E 013°12'1020.4
2019-Nov-17 04:00N 45°13' E 013°14'1121.1
2019-Nov-17 03:30N 45°03' E 013°19'4621.2
2019-Nov-17 01:21N 44°23' E 013°53'  
2019-Nov-13 20:03N 37°40' E 023°42'1610.1
2019-Nov-13 18:28N 37°56' E 023°38'0 0.0
2019-Nov-13 17:58N 37°56' E 023°38'0 0.0
2019-Nov-13 15:58N 37°56' E 023°38'0 0.0
2019-Nov-13 14:28N 37°56' E 023°38'0 0.0
2019-Nov-13 13:58N 37°56' E 023°38'0 0.0
2019-Nov-13 12:25N 37°56' E 023°38'0 0.0
2019-Nov-13 11:28N 37°56' E 023°38'0 0.0
2019-Nov-13 09:59N 37°56' E 023°38'0 0.0
2019-Nov-13 09:28N 37°56' E 023°38'0 0.0
2019-Nov-13 08:25N 37°56' E 023°38'25 3.0
2019-Nov-13 00:00N 37°32' E 023°46'1020.9
2019-Nov-12 23:30N 37°22' E 023°44'60912.9
2019-Nov-11 00:19N 44°16' E 013°54'1721.3
2019-Nov-10 23:30N 44°31' E 013°41'2121.1
2019-Nov-10 22:30N 44°48' E 013°24'3221.3
2019-Nov-10 21:00N 45°10' E 012°52'2811.3
2019-Nov-10 18:30N 45°26' E 012°19'0 0.0
2019-Nov-10 16:00N 45°26' E 012°19'0 0.0
2019-Nov-10 09:00N 45°26' E 012°19'23 7.8
2019-Nov-10 06:00N 45°14' E 012°46'3819.2
2019-Nov-10 04:00N 44°49' E 013°28'  

Dump ship's entire track history